»·PEaware :: 3A-MCH LSGG-EDDS

3A-MCH :: LSGG-EDDS

FLIGHT INFORMATION

Flight Status: Arrived
Operator: Privately registered:
Monaco
More flights under this callsign
Pilot: Timothy W. (9658)
Aircraft: ECLIPSE 500
(EA50)
More flights by this aircraft type
Origin: LSGG Geneva
Switzerland
Destination: EDDS Stuttgart
Germany
More flights between these airports :: More routes between these airports
Route: MOLU3A MOLUS UN871 DITON T163 ZUE T125 REUTL REUT5A
File this flight plan on PilotEdge
Remarks:
Altitude:
(Current/Filed)
23,000ft
Speed:
(Current/Filed)
360kts
Departed: 24-Aug-18 01:17 PM
Arrived: 24-Aug-18 02:17 PM
Distance/Time
Traveled:
194nm/1:00
Distance/Time
To Go:
Arrived

Flight Plot

Page will automatically refresh every two minutes.

Flight plan parsing failed; only flown route is shown


Map Options




Map Legend


Flown Route
Filed Route
Departure Airport
Arrival Airport
Navaid (VOR, NDB)
Fix

Horizontal Profiles

Position Reports

Time Latitude Longitude Heading Altitude Ground
Speed
24-Aug-18 12:42 46.235382 6.098971 136 1367ft 0kts
24-Aug-18 12:43 46.235382 6.098971 136 1367ft 0kts
24-Aug-18 12:44 46.235382 6.098971 136 1367ft 0kts
24-Aug-18 12:45 46.235382 6.098971 136 1367ft 0kts
24-Aug-18 12:46 46.235382 6.098971 136 1367ft 0kts
24-Aug-18 12:47 46.235382 6.098971 136 1367ft 0kts
24-Aug-18 12:48 46.235382 6.098971 136 1367ft 0kts
24-Aug-18 12:49 46.235382 6.098971 136 1367ft 0kts
24-Aug-18 12:50 46.235382 6.098971 136 1367ft 0kts
24-Aug-18 12:51 46.235382 6.098971 136 1367ft 0kts
24-Aug-18 12:52 46.235382 6.098971 136 1367ft 0kts
24-Aug-18 12:53 46.235382 6.098971 136 1367ft 0kts
24-Aug-18 12:54 46.235382 6.098971 136 1367ft 0kts
24-Aug-18 12:55 46.235382 6.098971 136 1367ft 0kts
24-Aug-18 12:56 46.235382 6.098971 136 1367ft 0kts
24-Aug-18 12:57 46.235382 6.098971 136 1367ft 0kts
24-Aug-18 12:58 46.235382 6.098971 136 1367ft 0kts
24-Aug-18 12:59 46.235382 6.098971 136 1367ft 0kts
24-Aug-18 13:00 46.235382 6.098971 136 1367ft 0kts
24-Aug-18 13:01 46.235382 6.098971 136 1367ft 0kts
24-Aug-18 13:02 46.235382 6.098971 136 1367ft 0kts
24-Aug-18 13:03 46.235382 6.098971 136 1367ft 0kts
24-Aug-18 13:04 46.235382 6.098971 136 1367ft 0kts
24-Aug-18 13:05 46.235382 6.098971 136 1367ft 0kts
24-Aug-18 13:06 46.235382 6.098971 136 1367ft 0kts
24-Aug-18 13:07 46.235382 6.098971 136 1367ft 0kts
24-Aug-18 13:08 46.235382 6.098971 136 1367ft 0kts
24-Aug-18 13:09 46.235382 6.098971 136 1367ft 0kts
24-Aug-18 13:10 46.235382 6.098971 136 1367ft 0kts
24-Aug-18 13:11 46.236508 6.101104 45 1367ft 17kts
24-Aug-18 13:12 46.239845 6.106008 45 1367ft 16kts
24-Aug-18 13:13 46.237758 6.108574 217 1367ft 18kts
24-Aug-18 13:14 46.236034 6.109283 46 1367ft 16kts
24-Aug-18 13:15 46.239506 6.114383 46 1367ft 16kts
24-Aug-18 13:16 46.243191 6.119798 45 1367ft 22kts
24-Aug-18 13:17 46.247546 6.126182 44 1367ft 18kts
24-Aug-18 13:18 46.249308 6.125451 227 1367ft 43kts
24-Aug-18 13:19 46.226422 6.091036 228 2479ft 150kts
24-Aug-18 13:20 46.196745 6.048082 227 4866ft 155kts
24-Aug-18 13:21 46.162903 6.011178 174 7050ft 169kts
24-Aug-18 13:22 46.126668 6.057234 117 9075ft 183kts
24-Aug-18 13:23 46.146345 6.119906 51 10885ft 189kts
24-Aug-18 13:24 46.177490 6.180760 49 12635ft 196kts
24-Aug-18 13:25 46.210464 6.244092 49 14293ft 202kts
24-Aug-18 13:26 46.244805 6.309697 48 15854ft 208kts
24-Aug-18 13:27 46.279650 6.376205 47 17297ft 214kts
24-Aug-18 13:28 46.315896 6.445454 47 18671ft 219kts
24-Aug-18 13:29 46.353007 6.516514 46 19962ft 224kts
24-Aug-18 13:30 46.392184 6.587452 44 21177ft 228kts
24-Aug-18 13:31 46.432636 6.659536 43 22323ft 233kts
24-Aug-18 13:32 46.474241 6.734025 44 23073ft 255kts
24-Aug-18 13:33 46.523167 6.821846 45 23073ft 302kts
24-Aug-18 13:34 46.578520 6.921662 45 23079ft 333kts
24-Aug-18 13:35 46.637961 7.028906 46 23073ft 351kts
24-Aug-18 13:36 46.697449 7.135906 46 23067ft 341kts
24-Aug-18 13:37 46.756599 7.242119 47 23074ft 337kts
24-Aug-18 13:38 46.814024 7.347027 46 23072ft 317kts
24-Aug-18 13:39 46.868753 7.447346 47 23074ft 317kts
24-Aug-18 13:40 46.923930 7.549122 46 23074ft 325kts
24-Aug-18 13:41 46.981065 7.654600 45 23075ft 339kts
24-Aug-18 13:42 47.041004 7.765704 46 23076ft 357kts
24-Aug-18 13:43 47.102352 7.879922 46 23084ft 357kts
24-Aug-18 13:44 47.159933 7.998618 53 23100ft 360kts
24-Aug-18 13:45 47.212732 8.123009 53 23099ft 360kts
24-Aug-18 13:46 47.265617 8.246164 53 23099ft 360kts
24-Aug-18 13:47 47.321177 8.363864 43 23100ft 355kts
24-Aug-18 13:48 47.386060 8.472178 42 23101ft 354kts
24-Aug-18 13:49 47.450219 8.579271 42 23102ft 354kts
24-Aug-18 13:50 47.515406 8.688406 42 23103ft 355kts
24-Aug-18 13:51 47.579747 8.796573 42 23103ft 354kts
24-Aug-18 13:52 47.633954 8.917367 54 23100ft 352kts
24-Aug-18 13:53 47.683809 9.037926 54 23089ft 341kts
24-Aug-18 13:54 47.733216 9.156216 55 23072ft 338kts
24-Aug-18 13:55 47.783444 9.273330 42 23062ft 334kts
24-Aug-18 13:56 47.865805 9.302662 356 23072ft 306kts
24-Aug-18 13:57 47.950591 9.311188 355 21778ft 302kts
24-Aug-18 13:58 48.032442 9.317934 355 19668ft 292kts
24-Aug-18 13:59 48.111859 9.324114 355 17659ft 284kts
24-Aug-18 14:00 48.189471 9.331839 358 15656ft 279kts
24-Aug-18 14:01 48.265504 9.344285 358 13945ft 274kts
24-Aug-18 14:02 48.339627 9.356356 359 11853ft 265kts
24-Aug-18 14:03 48.409945 9.347655 341 10851ft 252kts
24-Aug-18 14:04 48.478078 9.326221 341 9682ft 248kts
24-Aug-18 14:05 48.545088 9.304890 343 8496ft 248kts
24-Aug-18 14:06 48.606896 9.285284 344 7428ft 215kts
24-Aug-18 14:07 48.664172 9.267941 344 6412ft 208kts
24-Aug-18 14:08 48.719453 9.265789 50 5420ft 210kts
24-Aug-18 14:09 48.745766 9.342341 65 4427ft 203kts
24-Aug-18 14:10 48.772376 9.416297 55 4047ft 200kts
24-Aug-18 14:11 48.789585 9.488047 136 4054ft 178kts
24-Aug-18 14:12 48.753746 9.464905 225 4047ft 159kts
24-Aug-18 14:13 48.725927 9.413229 253 3619ft 154kts
24-Aug-18 14:14 48.716474 9.363107 250 2898ft 112kts
24-Aug-18 14:15 48.708055 9.318364 254 2304ft 109kts
24-Aug-18 14:16 48.699650 9.273907 253 1697ft 112kts
24-Aug-18 14:17 48.691876 9.232648 254 1278ft 48kts
24-Aug-18 14:18 48.692899 9.224143 261 1278ft 17kts
24-Aug-18 14:19 48.691651 9.217408 252 1278ft 15kts
24-Aug-18 14:20 48.691598 9.213078 6 1278ft 1kts
24-Aug-18 14:21 48.691667 9.213060 343 1278ft 0kts
24-Aug-18 14:22 48.691667 9.213060 343 1278ft 0kts
24-Aug-18 14:23 48.691667 9.213060 343 1278ft 0kts
24-Aug-18 14:24 48.691667 9.213060 343 1278ft 0kts
24-Aug-18 14:25 48.691667 9.213060 343 1278ft 0kts
24-Aug-18 14:26 48.691667 9.213060 343 1278ft 0kts
24-Aug-18 14:27 48.691667 9.213060 343 1278ft 0kts
24-Aug-18 14:28 48.691667 9.213060 343 1278ft 0kts
24-Aug-18 14:29 48.691667 9.213060 343 1278ft 0kts
24-Aug-18 14:30 48.691667 9.213060 343 1278ft 0kts
24-Aug-18 14:31 48.691667 9.213060 343 1278ft 0kts
24-Aug-18 14:32 48.691667 9.213060 343 1278ft 0kts

Navigation Log

Ident Type
Flight plan parsing failed, navigation log unavailable